Time;durP1;ratioP1;P1;durP2;ratioP2;P2;SDS_P1;SDS_P2;PMS_P1;PMS_P2;Temp;Humidity;BMP_temperature;BMP_pressure;BME280_temperature;BME280_humidity;BME280_pressure;Samples;Min_cycle;Max_cycle;Signal;HPM_P1;HPM_P2
2022/10/17 15:31:28;;;;;;;;;;;10.20;81.60;;;;;;5176183;27;20336;-95
2022/10/17 15:33:53;;;;;;;;;;;9.80;82.90;;;;;;5154264;27;20279;-96
2022/10/17 15:36:29;;;;;;;;;;;9.80;84.20;;;;;;5158021;27;19908;-95
2022/10/17 15:38:56;;;;;;;;;;;9.70;85.30;;;;;;5157167;27;19919;-95
2022/10/17 15:41:23;;;;;;;;;;;9.70;86.30;;;;;;5161304;27;19937;-96
2022/10/17 15:43:48;;;;;;;;;;;9.60;86.90;;;;;;5163247;27;19915;-95
2022/10/17 15:46:17;;;;;;;;;;;9.60;87.60;;;;;;5164580;27;19960;-96
2022/10/17 15:48:43;;;;;;;;;;;9.60;88.10;;;;;;5158434;27;19907;-93
2022/10/17 15:51:08;;;;;;;;;;;9.60;88.50;;;;;;5154578;27;19926;-92
2022/10/17 15:53:34;;;;;;;;;;;9.50;88.80;;;;;;5153178;27;19908;-93
2022/10/17 15:56:00;;;;;;;;;;;9.50;89.20;;;;;;5166068;27;19907;-92
2022/10/17 15:58:29;;;;;;;;;;;9.50;89.50;;;;;;5165712;27;20350;-90
2022/10/17 16:00:54;;;;;;;;;;;9.40;89.80;;;;;;5158962;27;20001;-93
2022/10/17 16:03:20;;;;;;;;;;;9.40;90.00;;;;;;5157027;27;19942;-94
2022/10/17 16:05:45;;;;;;;;;;;9.40;90.10;;;;;;5156554;27;19954;-89
2022/10/17 16:08:11;;;;;;;;;;;9.30;90.20;;;;;;5162496;27;19911;-93
2022/10/17 16:10:38;;;;;;;;;;;9.30;90.30;;;;;;5154208;27;19923;-90
2022/10/17 16:13:04;;;;;;;;;;;9.30;90.30;;;;;;5165168;27;20327;-92
2022/10/17 16:15:29;;;;;;;;;;;9.30;90.40;;;;;;5163910;27;19950;-96
2022/10/17 16:17:56;;;;;;;;;;;9.20;90.50;;;;;;5160580;27;19950;-94
2022/10/17 16:20:22;;;;;;;;;;;9.10;90.60;;;;;;5158273;27;19916;-92
2022/10/17 16:22:48;;;;;;;;;;;9.00;90.60;;;;;;5163551;27;19914;-94
2022/10/17 16:25:27;;;;;;;;;;;9.10;90.80;;;;;;5158059;27;19964;-93
2022/10/17 16:27:53;;;;;;;;;;;9.00;90.80;;;;;;5159986;27;19911;-92
2022/10/17 16:30:20;;;;;;;;;;;8.90;90.90;;;;;;5154802;27;20010;-93
2022/10/17 16:32:45;;;;;;;;;;;8.80;91.00;;;;;;5153329;27;20005;-94
2022/10/17 16:35:15;;;;;;;;;;;8.80;91.00;;;;;;5156877;27;19966;-93
2022/10/17 16:37:40;;;;;;;;;;;8.70;91.10;;;;;;5156350;27;19911;-93
2022/10/17 16:40:06;;;;;;;;;;;8.60;91.20;;;;;;5161308;27;19911;-94
2022/10/17 16:42:31;;;;;;;;;;;8.60;91.20;;;;;;5150845;27;20304;-93
2022/10/17 16:44:57;;;;;;;;;;;8.50;91.20;;;;;;5144046;27;19912;-92
2022/10/17 16:47:23;;;;;;;;;;;8.50;91.30;;;;;;5143690;27;19911;-93
2022/10/17 16:49:48;;;;;;;;;;;8.40;91.50;;;;;;5146233;27;19959;-94
2022/10/17 16:52:14;;;;;;;;;;;8.40;91.50;;;;;;5149354;27;19911;-94
2022/10/17 16:54:39;;;;;;;;;;;8.30;91.60;;;;;;5144368;27;19918;-93
2022/10/17 16:57:05;;;;;;;;;;;8.30;91.80;;;;;;5143445;27;20080;-93
2022/10/17 16:59:30;;;;;;;;;;;8.20;91.90;;;;;;5139720;27;19911;-95
2022/10/17 17:01:56;;;;;;;;;;;8.10;91.90;;;;;;5138823;27;20309;-92
2022/10/17 17:04:21;;;;;;;;;;;8.00;92.10;;;;;;5148132;27;19915;-93
2022/10/17 17:06:47;;;;;;;;;;;8.00;92.20;;;;;;5143009;27;20270;-92
2022/10/17 17:09:12;;;;;;;;;;;7.90;92.30;;;;;;5149685;27;20002;-92
2022/10/17 17:11:38;;;;;;;;;;;7.90;92.30;;;;;;5148829;27;19930;-93
2022/10/17 17:14:05;;;;;;;;;;;7.80;92.40;;;;;;5144647;27;19959;-92
2022/10/17 17:16:31;;;;;;;;;;;7.80;92.40;;;;;;5146179;27;20006;-93
2022/10/17 17:19:01;;;;;;;;;;;7.80;92.50;;;;;;5141498;27;19922;-93
2022/10/17 17:21:27;;;;;;;;;;;7.70;92.50;;;;;;5140612;27;20020;-92
2022/10/17 17:23:56;;;;;;;;;;;7.70;92.50;;;;;;5138068;27;19915;-92
2022/10/17 17:26:21;;;;;;;;;;;7.60;92.60;;;;;;5140383;27;20043;-91
2022/10/17 17:28:47;;;;;;;;;;;7.60;92.70;;;;;;5149169;27;19915;-95
2022/10/17 17:31:15;;;;;;;;;;;7.60;92.70;;;;;;5143262;27;19923;-94
2022/10/17 17:33:41;;;;;;;;;;;7.50;92.80;;;;;;5145420;27;20371;-93
2022/10/17 17:36:07;;;;;;;;;;;7.40;92.90;;;;;;5142694;27;19918;-95
2022/10/17 17:38:33;;;;;;;;;;;7.40;92.90;;;;;;5149356;27;19919;-96
2022/10/17 17:40:59;;;;;;;;;;;7.40;92.90;;;;;;5148900;27;19915;-95
2022/10/17 17:43:25;;;;;;;;;;;7.30;93.10;;;;;;5148889;27;19971;-92
2022/10/17 17:45:50;;;;;;;;;;;7.20;93.10;;;;;;5143306;27;19919;-91
2022/10/17 17:48:16;;;;;;;;;;;7.20;93.20;;;;;;5139198;27;19915;-92
2022/10/17 17:50:42;;;;;;;;;;;7.20;93.30;;;;;;5142508;27;19923;-92
2022/10/17 17:53:08;;;;;;;;;;;7.10;93.20;;;;;;5138166;27;19948;-91
2022/10/17 17:55:34;;;;;;;;;;;7.00;93.30;;;;;;5142147;27;19911;-92
2022/10/17 17:57:59;;;;;;;;;;;7.00;93.40;;;;;;5144442;27;20414;-94
2022/10/17 18:00:25;;;;;;;;;;;7.00;93.50;;;;;;5137257;27;19934;-94
2022/10/17 18:02:51;;;;;;;;;;;7.00;93.50;;;;;;5139317;27;19912;-93
2022/10/17 18:05:16;;;;;;;;;;;6.90;93.60;;;;;;5146731;27;19922;-92
2022/10/17 18:07:42;;;;;;;;;;;6.90;93.70;;;;;;5145395;27;19919;-92
2022/10/17 18:10:08;;;;;;;;;;;6.80;93.70;;;;;;5138465;27;19911;-91
2022/10/17 18:12:33;;;;;;;;;;;6.80;93.70;;;;;;5141490;27;19911;-91
2022/10/17 18:15:00;;;;;;;;;;;6.80;93.80;;;;;;5150724;27;19911;-94
2022/10/17 18:17:25;;;;;;;;;;;6.70;93.80;;;;;;5154457;27;20270;-96
2022/10/17 18:19:51;;;;;;;;;;;6.70;93.90;;;;;;5147150;27;19953;-96
2022/10/17 18:22:17;;;;;;;;;;;6.70;93.90;;;;;;5144077;27;20249;-93
2022/10/17 19:04:03;;;;;;;;;;;4.90;91.30;;;;;;5133967;27;19963;-95
2022/10/17 19:06:32;;;;;;;;;;;4.80;92.30;;;;;;5114188;28;20418;-94
2022/10/17 19:08:59;;;;;;;;;;;4.80;93.00;;;;;;5091975;28;19971;-90
2022/10/17 19:11:25;;;;;;;;;;;4.80;93.30;;;;;;5095647;28;20383;-89
2022/10/17 19:13:51;;;;;;;;;;;4.80;93.90;;;;;;5087263;28;19909;-91
2022/10/17 19:16:21;;;;;;;;;;;4.90;94.30;;;;;;5072249;28;19948;-90
